Terminal Aerodrome Forecast
Issued by NWS

Home | Current Version | Previous Version | Text Only | Print | Product List | Glossary On
Versions: 1 2 3 4 5 6 7 8 9 10 11 12 13
898
FTUS43 KMPX 142342
TAFRNH
TAF
KRNH 142342Z 1500/1524 15009KT 3SM -SN BKN015 OVC025
      TEMPO 1500/1502 1 1/2SM -SN OVC015
     FM150500 16007KT P6SM BKN025 OVC040
     FM151000 19004KT 6SM BR OVC012
     FM151800 19006KT P6SM FEW015 BKN200=

USA.gov is the U.S. government's official web portal to all federal, state and local government web resources and services.